createdAt,value
2022-11-24T05:00:30.908Z,6.20
2022-11-24T05:11:35.766Z,2.40
2022-11-24T05:22:35.647Z,2.70
2022-11-24T05:33:35.502Z,2.20
2022-11-24T05:44:35.838Z,2.70
2022-11-24T05:55:35.250Z,8.00
2022-11-24T06:06:35.137Z,2.40
2022-11-24T06:17:35.009Z,3.10
2022-11-24T06:28:34.874Z,3.20
2022-11-24T06:39:34.746Z,1.90
2022-11-24T06:50:34.621Z,2.30
2022-11-24T07:01:34.590Z,1.30
2022-11-24T07:12:34.381Z,1.40
2022-11-24T07:23:34.280Z,2.50
2022-11-24T07:34:34.544Z,2.90
2022-11-24T07:45:34.029Z,2.60
2022-11-24T07:56:33.874Z,1.70
2022-11-24T08:07:34.802Z,2.00
2022-11-24T08:18:33.617Z,2.50
2022-11-24T08:29:33.503Z,1.70
2022-11-24T08:40:33.366Z,2.60
2022-11-24T08:51:33.247Z,1.70
2022-11-24T09:02:33.124Z,1.40
2022-11-24T09:13:32.996Z,1.70
2022-11-24T09:24:32.866Z,2.20
2022-11-24T09:35:32.762Z,3.00
2022-11-24T09:46:33.717Z,1.40
2022-11-24T09:57:37.064Z,2.20
2022-11-24T10:08:32.366Z,2.00
2022-11-24T10:19:37.056Z,1.80
2022-11-24T10:30:32.117Z,1.20
2022-11-24T10:41:33.005Z,1.30
2022-11-24T10:52:31.878Z,2.00
2022-11-24T11:03:31.741Z,2.30
2022-11-24T11:14:31.615Z,1.60
2022-11-24T11:25:31.495Z,1.20
2022-11-24T11:36:31.378Z,1.70
2022-11-24T11:47:31.247Z,1.20
2022-11-24T11:58:31.136Z,1.20
2022-11-24T12:09:31.022Z,3.30
2022-11-24T12:20:30.874Z,1.30
2022-11-24T12:31:30.810Z,1.90
2022-11-24T12:42:31.624Z,1.50
2022-11-24T12:53:30.505Z,2.20
2022-11-24T13:04:30.416Z,1.50
2022-11-24T13:15:45.654Z,1.50
2022-11-24T13:26:30.136Z,1.60
2022-11-24T13:37:34.753Z,1.60
2022-11-24T13:48:29.930Z,1.90
2022-11-24T13:59:29.783Z,2.00
2022-11-24T14:10:29.667Z,1.40
2022-11-24T14:21:29.535Z,1.30
2022-11-24T14:32:29.412Z,2.10
2022-11-24T14:43:29.273Z,1.20
2022-11-24T14:54:29.155Z,1.90
2022-11-24T15:05:30.014Z,1.50
2022-11-24T15:16:28.951Z,1.20
2022-11-24T15:27:29.813Z,2.20
2022-11-24T15:38:28.643Z,2.40
2022-11-24T15:49:28.513Z,2.70
2022-11-24T16:00:28.393Z,1.40
2022-11-24T16:11:28.270Z,3.70
2022-11-24T16:22:28.149Z,4.00
2022-11-24T16:33:28.021Z,3.70
2022-11-24T16:44:27.889Z,3.60
2022-11-24T16:55:27.790Z,4.00
2022-11-24T17:06:27.641Z,2.10
2022-11-24T17:17:27.535Z,2.60
2022-11-24T17:28:27.404Z,4.60
2022-11-24T17:39:27.276Z,4.80
2022-11-24T17:50:27.185Z,5.10
2022-11-24T18:01:27.083Z,6.40
2022-11-24T18:12:27.896Z,6.00
2022-11-24T18:23:27.783Z,5.80
2022-11-24T18:34:26.651Z,5.60
2022-11-24T18:45:26.571Z,4.10
2022-11-24T18:56:26.406Z,5.20
2022-11-24T19:07:26.314Z,4.70
2022-11-24T19:18:26.163Z,5.80
2022-11-24T19:29:26.028Z,5.40
2022-11-24T19:40:25.910Z,5.40
2022-11-24T19:51:25.790Z,5.20
2022-11-24T20:02:25.713Z,5.30
2022-11-24T20:13:25.536Z,5.00
2022-11-24T20:24:25.401Z,7.90
2022-11-24T20:35:25.281Z,4.60
2022-11-24T20:46:25.217Z,5.20
2022-11-24T20:57:25.042Z,4.50
2022-11-24T21:08:24.905Z,4.50
2022-11-24T21:19:24.841Z,3.50
2022-11-24T21:30:24.656Z,3.40
2022-11-24T21:41:24.549Z,4.00
2022-11-24T21:52:24.424Z,3.80
